sensor_id;sensor_type;location;lat;lon;timestamp;temperature;humidity
64396;DHT22;50717;53.360;6.290;2023-12-28T00:00:19;10.00;99.90
64396;DHT22;50717;53.360;6.290;2023-12-28T00:02:44;9.90;99.70
64396;DHT22;50717;53.360;6.290;2023-12-28T00:05:10;9.60;96.90
64396;DHT22;50717;53.360;6.290;2023-12-28T00:07:36;9.80;99.90
64396;DHT22;50717;53.360;6.290;2023-12-28T00:10:03;9.90;99.90
64396;DHT22;50717;53.360;6.290;2023-12-28T00:12:28;9.80;99.90
64396;DHT22;50717;53.360;6.290;2023-12-28T00:14:54;9.50;99.90
64396;DHT22;50717;53.360;6.290;2023-12-28T00:17:20;9.90;99.90
64396;DHT22;50717;53.360;6.290;2023-12-28T00:19:46;9.70;99.90
64396;DHT22;50717;53.360;6.290;2023-12-28T00:22:11;9.90;99.90
64396;DHT22;50717;53.360;6.290;2023-12-28T00:24:37;10.10;99.90
64396;DHT22;50717;53.360;6.290;2023-12-28T00:27:03;10.30;99.90
64396;DHT22;50717;53.360;6.290;2023-12-28T00:29:29;10.10;99.90
64396;DHT22;50717;53.360;6.290;2023-12-28T00:31:55;9.90;99.90
64396;DHT22;50717;53.360;6.290;2023-12-28T00:34:21;9.90;99.90
64396;DHT22;50717;53.360;6.290;2023-12-28T00:36:46;9.90;99.90
64396;DHT22;50717;53.360;6.290;2023-12-28T00:39:12;10.10;99.90
64396;DHT22;50717;53.360;6.290;2023-12-28T00:41:38;9.80;99.90
64396;DHT22;50717;53.360;6.290;2023-12-28T00:44:04;10.20;99.90
64396;DHT22;50717;53.360;6.290;2023-12-28T00:46:32;10.50;99.90
64396;DHT22;50717;53.360;6.290;2023-12-28T00:48:57;10.20;99.90
64396;DHT22;50717;53.360;6.290;2023-12-28T00:51:23;10.40;99.90
64396;DHT22;50717;53.360;6.290;2023-12-28T00:53:49;9.80;99.90
64396;DHT22;50717;53.360;6.290;2023-12-28T00:56:14;10.00;99.90
64396;DHT22;50717;53.360;6.290;2023-12-28T00:58:40;10.30;99.90
64396;DHT22;50717;53.360;6.290;2023-12-28T01:01:06;10.20;99.90
64396;DHT22;50717;53.360;6.290;2023-12-28T01:03:32;10.10;99.90
64396;DHT22;50717;53.360;6.290;2023-12-28T01:05:57;9.90;99.90
64396;DHT22;50717;53.360;6.290;2023-12-28T01:08:23;10.30;99.90
64396;DHT22;50717;53.360;6.290;2023-12-28T01:10:49;10.50;99.90
64396;DHT22;50717;53.360;6.290;2023-12-28T01:13:15;10.20;99.90
64396;DHT22;50717;53.360;6.290;2023-12-28T01:15:41;10.00;99.90
64396;DHT22;50717;53.360;6.290;2023-12-28T01:18:06;10.30;99.90
64396;DHT22;50717;53.360;6.290;2023-12-28T01:20:32;10.30;99.90
64396;DHT22;50717;53.360;6.290;2023-12-28T01:22:58;10.00;99.90
64396;DHT22;50717;53.360;6.290;2023-12-28T01:25:23;9.90;99.90
64396;DHT22;50717;53.360;6.290;2023-12-28T01:27:49;10.20;99.90
64396;DHT22;50717;53.360;6.290;2023-12-28T01:30:15;9.90;99.90
64396;DHT22;50717;53.360;6.290;2023-12-28T01:32:40;10.00;99.90
64396;DHT22;50717;53.360;6.290;2023-12-28T01:35:06;9.90;99.90
64396;DHT22;50717;53.360;6.290;2023-12-28T01:37:32;10.00;99.90
64396;DHT22;50717;53.360;6.290;2023-12-28T01:39:59;10.10;99.90
64396;DHT22;50717;53.360;6.290;2023-12-28T01:42:26;10.10;99.90
64396;DHT22;50717;53.360;6.290;2023-12-28T01:44:52;10.30;99.90
64396;DHT22;50717;53.360;6.290;2023-12-28T01:47:18;10.20;99.90
64396;DHT22;50717;53.360;6.290;2023-12-28T01:49:44;10.40;99.90
64396;DHT22;50717;53.360;6.290;2023-12-28T01:52:10;9.90;99.90
64396;DHT22;50717;53.360;6.290;2023-12-28T01:54:37;10.20;99.90
64396;DHT22;50717;53.360;6.290;2023-12-28T01:57:03;9.90;99.90
64396;DHT22;50717;53.360;6.290;2023-12-28T01:59:30;10.20;99.90
64396;DHT22;50717;53.360;6.290;2023-12-28T02:01:57;10.10;99.90
64396;DHT22;50717;53.360;6.290;2023-12-28T02:04:23;10.40;99.90
64396;DHT22;50717;53.360;6.290;2023-12-28T02:06:57;9.80;99.90
64396;DHT22;50717;53.360;6.290;2023-12-28T02:09:24;9.80;99.90
64396;DHT22;50717;53.360;6.290;2023-12-28T02:11:51;9.90;99.90
64396;DHT22;50717;53.360;6.290;2023-12-28T02:14:17;10.00;99.90
64396;DHT22;50717;53.360;6.290;2023-12-28T02:17:04;8.70;99.90
64396;DHT22;50717;53.360;6.290;2023-12-28T02:19:50;9.70;99.90
64396;DHT22;50717;53.360;6.290;2023-12-28T02:22:16;9.60;99.90
64396;DHT22;50717;53.360;6.290;2023-12-28T02:25:06;9.90;99.90
64396;DHT22;50717;53.360;6.290;2023-12-28T02:27:38;10.10;99.90
64396;DHT22;50717;53.360;6.290;2023-12-28T02:30:06;9.90;99.90
64396;DHT22;50717;53.360;6.290;2023-12-28T02:35:37;10.20;99.90
64396;DHT22;50717;53.360;6.290;2023-12-28T02:38:12;9.70;99.90
64396;DHT22;50717;53.360;6.290;2023-12-28T02:40:40;9.90;99.90
64396;DHT22;50717;53.360;6.290;2023-12-28T02:43:08;10.20;99.90
64396;DHT22;50717;53.360;6.290;2023-12-28T02:45:34;10.10;99.90
64396;DHT22;50717;53.360;6.290;2023-12-28T02:48:00;10.10;99.90
64396;DHT22;50717;53.360;6.290;2023-12-28T02:50:26;10.50;99.90
64396;DHT22;50717;53.360;6.290;2023-12-28T02:52:52;10.00;99.90
64396;DHT22;50717;53.360;6.290;2023-12-28T02:55:18;10.20;99.90
64396;DHT22;50717;53.360;6.290;2023-12-28T02:57:44;10.20;99.90
64396;DHT22;50717;53.360;6.290;2023-12-28T03:00:10;10.20;99.90
64396;DHT22;50717;53.360;6.290;2023-12-28T03:02:36;10.10;99.90
64396;DHT22;50717;53.360;6.290;2023-12-28T03:05:05;10.20;99.90
64396;DHT22;50717;53.360;6.290;2023-12-28T03:07:32;10.30;97.90
64396;DHT22;50717;53.360;6.290;2023-12-28T03:09:58;10.20;99.90
64396;DHT22;50717;53.360;6.290;2023-12-28T03:12:24;10.50;93.50
64396;DHT22;50717;53.360;6.290;2023-12-28T03:14:50;10.70;94.60
64396;DHT22;50717;53.360;6.290;2023-12-28T03:17:16;10.40;99.90
64396;DHT22;50717;53.360;6.290;2023-12-28T03:19:41;10.30;99.10
64396;DHT22;50717;53.360;6.290;2023-12-28T03:22:07;10.40;98.00
64396;DHT22;50717;53.360;6.290;2023-12-28T03:24:33;10.20;95.00
64396;DHT22;50717;53.360;6.290;2023-12-28T03:26:59;9.90;95.50
64396;DHT22;50717;53.360;6.290;2023-12-28T03:29:24;10.30;99.90
64396;DHT22;50717;53.360;6.290;2023-12-28T03:31:50;10.40;91.80
64396;DHT22;50717;53.360;6.290;2023-12-28T03:34:16;10.40;96.30
64396;DHT22;50717;53.360;6.290;2023-12-28T03:36:42;10.30;91.50
64396;DHT22;50717;53.360;6.290;2023-12-28T03:39:08;10.20;93.30
64396;DHT22;50717;53.360;6.290;2023-12-28T03:41:34;10.10;89.30
64396;DHT22;50717;53.360;6.290;2023-12-28T03:44:00;10.10;85.30
64396;DHT22;50717;53.360;6.290;2023-12-28T03:46:26;10.20;91.20
64396;DHT22;50717;53.360;6.290;2023-12-28T03:48:52;10.30;78.00
64396;DHT22;50717;53.360;6.290;2023-12-28T03:51:18;10.40;92.20
64396;DHT22;50717;53.360;6.290;2023-12-28T03:53:44;10.30;90.10
64396;DHT22;50717;53.360;6.290;2023-12-28T03:58:50;10.60;81.00
64396;DHT22;50717;53.360;6.290;2023-12-28T04:01:20;10.50;74.90
64396;DHT22;50717;53.360;6.290;2023-12-28T04:03:46;10.30;72.20
64396;DHT22;50717;53.360;6.290;2023-12-28T04:06:12;10.40;71.10
64396;DHT22;50717;53.360;6.290;2023-12-28T04:08:38;10.30;63.90
64396;DHT22;50717;53.360;6.290;2023-12-28T04:11:04;10.40;65.40
64396;DHT22;50717;53.360;6.290;2023-12-28T04:13:30;10.60;61.50
64396;DHT22;50717;53.360;6.290;2023-12-28T04:15:56;10.70;66.10
64396;DHT22;50717;53.360;6.290;2023-12-28T04:18:22;10.50;60.60
64396;DHT22;50717;53.360;6.290;2023-12-28T04:20:47;10.80;65.00
64396;DHT22;50717;53.360;6.290;2023-12-28T04:23:14;10.50;49.40
64396;DHT22;50717;53.360;6.290;2023-12-28T04:25:40;10.50;53.10
64396;DHT22;50717;53.360;6.290;2023-12-28T04:28:06;10.50;45.40
64396;DHT22;50717;53.360;6.290;2023-12-28T04:30:32;10.70;51.10
64396;DHT22;50717;53.360;6.290;2023-12-28T04:32:57;10.60;49.00
64396;DHT22;50717;53.360;6.290;2023-12-28T04:35:23;10.70;44.40
64396;DHT22;50717;53.360;6.290;2023-12-28T04:37:49;10.40;49.20
64396;DHT22;50717;53.360;6.290;2023-12-28T04:40:15;10.70;46.40
64396;DHT22;50717;53.360;6.290;2023-12-28T04:42:41;11.00;33.60
64396;DHT22;50717;53.360;6.290;2023-12-28T04:45:07;10.50;36.60
64396;DHT22;50717;53.360;6.290;2023-12-28T04:47:32;11.10;28.90
64396;DHT22;50717;53.360;6.290;2023-12-28T04:49:58;10.60;24.60
64396;DHT22;50717;53.360;6.290;2023-12-28T04:52:24;10.70;18.40
64396;DHT22;50717;53.360;6.290;2023-12-28T04:54:49;10.80;24.90
64396;DHT22;50717;53.360;6.290;2023-12-28T04:57:16;10.50;19.80
64396;DHT22;50717;53.360;6.290;2023-12-28T04:59:42;10.80;25.60
64396;DHT22;50717;53.360;6.290;2023-12-28T05:02:07;10.70;27.60
64396;DHT22;50717;53.360;6.290;2023-12-28T05:04:36;10.70;21.60
64396;DHT22;50717;53.360;6.290;2023-12-28T05:07:02;10.80;32.90
64396;DHT22;50717;53.360;6.290;2023-12-28T05:09:28;10.70;29.40
64396;DHT22;50717;53.360;6.290;2023-12-28T05:11:54;10.30;32.90
64396;DHT22;50717;53.360;6.290;2023-12-28T05:14:19;10.90;37.20
64396;DHT22;50717;53.360;6.290;2023-12-28T05:16:45;10.60;35.90
64396;DHT22;50717;53.360;6.290;2023-12-28T05:19:11;10.70;30.00
64396;DHT22;50717;53.360;6.290;2023-12-28T05:21:36;10.40;32.60
64396;DHT22;50717;53.360;6.290;2023-12-28T05:24:02;10.70;34.60
64396;DHT22;50717;53.360;6.290;2023-12-28T05:26:28;10.90;30.60
64396;DHT22;50717;53.360;6.290;2023-12-28T05:28:54;10.50;23.00
64396;DHT22;50717;53.360;6.290;2023-12-28T05:31:19;10.50;27.30
64396;DHT22;50717;53.360;6.290;2023-12-28T05:33:45;10.60;28.90
64396;DHT22;50717;53.360;6.290;2023-12-28T05:36:10;10.60;22.10
64396;DHT22;50717;53.360;6.290;2023-12-28T05:38:36;10.30;23.70
64396;DHT22;50717;53.360;6.290;2023-12-28T05:41:02;10.50;29.80
64396;DHT22;50717;53.360;6.290;2023-12-28T05:43:27;10.80;21.40
64396;DHT22;50717;53.360;6.290;2023-12-28T05:45:53;10.90;23.30
64396;DHT22;50717;53.360;6.290;2023-12-28T05:48:19;10.30;22.80
64396;DHT22;50717;53.360;6.290;2023-12-28T05:50:44;10.30;26.70
64396;DHT22;50717;53.360;6.290;2023-12-28T05:53:10;10.50;23.80
64396;DHT22;50717;53.360;6.290;2023-12-28T05:55:43;10.50;28.30
64396;DHT22;50717;53.360;6.290;2023-12-28T05:58:09;10.50;22.10
64396;DHT22;50717;53.360;6.290;2023-12-28T06:00:35;10.40;29.90
64396;DHT22;50717;53.360;6.290;2023-12-28T06:03:05;10.30;28.60
64396;DHT22;50717;53.360;6.290;2023-12-28T06:05:31;10.40;28.40
64396;DHT22;50717;53.360;6.290;2023-12-28T06:07:57;10.50;34.00
64396;DHT22;50717;53.360;6.290;2023-12-28T06:10:23;10.60;28.50
64396;DHT22;50717;53.360;6.290;2023-12-28T06:12:49;10.60;26.40
64396;DHT22;50717;53.360;6.290;2023-12-28T06:15:15;10.60;38.00
64396;DHT22;50717;53.360;6.290;2023-12-28T06:17:41;10.50;27.90
64396;DHT22;50717;53.360;6.290;2023-12-28T06:20:07;10.60;26.60
64396;DHT22;50717;53.360;6.290;2023-12-28T06:22:36;10.60;24.70
64396;DHT22;50717;53.360;6.290;2023-12-28T06:25:02;10.90;32.70
64396;DHT22;50717;53.360;6.290;2023-12-28T06:27:29;10.90;31.70
64396;DHT22;50717;53.360;6.290;2023-12-28T06:29:54;10.70;29.30
64396;DHT22;50717;53.360;6.290;2023-12-28T06:32:20;10.40;28.30
64396;DHT22;50717;53.360;6.290;2023-12-28T06:34:46;10.70;33.50
64396;DHT22;50717;53.360;6.290;2023-12-28T06:37:12;10.50;22.90
64396;DHT22;50717;53.360;6.290;2023-12-28T06:39:39;10.50;30.00
64396;DHT22;50717;53.360;6.290;2023-12-28T06:42:05;11.00;27.90
64396;DHT22;50717;53.360;6.290;2023-12-28T06:44:30;10.50;29.90
64396;DHT22;50717;53.360;6.290;2023-12-28T06:46:56;10.70;21.90
64396;DHT22;50717;53.360;6.290;2023-12-28T06:49:22;10.70;24.70
64396;DHT22;50717;53.360;6.290;2023-12-28T06:51:47;10.50;24.20
64396;DHT22;50717;53.360;6.290;2023-12-28T06:54:13;10.70;17.00
64396;DHT22;50717;53.360;6.290;2023-12-28T06:56:40;10.80;21.30
64396;DHT22;50717;53.360;6.290;2023-12-28T06:59:06;10.60;21.40
64396;DHT22;50717;53.360;6.290;2023-12-28T07:01:32;10.80;19.90
64396;DHT22;50717;53.360;6.290;2023-12-28T07:03:57;10.90;13.20
64396;DHT22;50717;53.360;6.290;2023-12-28T07:06:25;10.90;18.20
64396;DHT22;50717;53.360;6.290;2023-12-28T07:08:51;10.90;13.50
64396;DHT22;50717;53.360;6.290;2023-12-28T07:11:16;10.80;16.00
64396;DHT22;50717;53.360;6.290;2023-12-28T07:13:42;10.60;9.50
64396;DHT22;50717;53.360;6.290;2023-12-28T07:16:08;10.80;14.70
64396;DHT22;50717;53.360;6.290;2023-12-28T07:18:34;11.00;6.70
64396;DHT22;50717;53.360;6.290;2023-12-28T07:20:59;10.70;10.60
64396;DHT22;50717;53.360;6.290;2023-12-28T07:23:26;11.10;1.00
64396;DHT22;50717;53.360;6.290;2023-12-28T07:25:52;10.80;1.00
64396;DHT22;50717;53.360;6.290;2023-12-28T07:28:18;11.20;1.00
64396;DHT22;50717;53.360;6.290;2023-12-28T07:30:44;11.30;1.00
64396;DHT22;50717;53.360;6.290;2023-12-28T07:33:10;11.30;1.00
64396;DHT22;50717;53.360;6.290;2023-12-28T07:35:35;11.00;1.00
64396;DHT22;50717;53.360;6.290;2023-12-28T07:38:01;10.90;1.00
64396;DHT22;50717;53.360;6.290;2023-12-28T07:40:27;10.90;1.00
64396;DHT22;50717;53.360;6.290;2023-12-28T07:42:53;10.70;1.00
64396;DHT22;50717;53.360;6.290;2023-12-28T07:45:19;11.00;1.00
64396;DHT22;50717;53.360;6.290;2023-12-28T07:47:51;11.10;1.00
64396;DHT22;50717;53.360;6.290;2023-12-28T07:50:17;11.20;1.00
64396;DHT22;50717;53.360;6.290;2023-12-28T07:52:44;10.90;1.00
64396;DHT22;50717;53.360;6.290;2023-12-28T07:55:10;11.20;1.00
64396;DHT22;50717;53.360;6.290;2023-12-28T07:57:36;10.90;1.00
64396;DHT22;50717;53.360;6.290;2023-12-28T08:00:02;11.50;1.00
64396;DHT22;50717;53.360;6.290;2023-12-28T08:02:29;11.20;1.00
64396;DHT22;50717;53.360;6.290;2023-12-28T08:04:55;11.50;1.00
64396;DHT22;50717;53.360;6.290;2023-12-28T08:07:20;11.30;1.00
64396;DHT22;50717;53.360;6.290;2023-12-28T08:09:46;11.40;1.00
64396;DHT22;50717;53.360;6.290;2023-12-28T08:12:11;11.00;1.00
64396;DHT22;50717;53.360;6.290;2023-12-28T08:14:37;11.40;1.00
64396;DHT22;50717;53.360;6.290;2023-12-28T08:17:03;11.40;1.00
64396;DHT22;50717;53.360;6.290;2023-12-28T08:19:29;11.40;1.00
64396;DHT22;50717;53.360;6.290;2023-12-28T08:21:54;11.60;1.00
64396;DHT22;50717;53.360;6.290;2023-12-28T08:24:21;11.40;1.00
64396;DHT22;50717;53.360;6.290;2023-12-28T08:26:46;11.10;1.00
64396;DHT22;50717;53.360;6.290;2023-12-28T08:29:12;11.50;1.00
64396;DHT22;50717;53.360;6.290;2023-12-28T08:31:38;11.80;1.00
64396;DHT22;50717;53.360;6.290;2023-12-28T08:34:04;11.50;1.00
64396;DHT22;50717;53.360;6.290;2023-12-28T08:36:30;11.50;1.00
64396;DHT22;50717;53.360;6.290;2023-12-28T08:38:55;11.60;1.00
64396;DHT22;50717;53.360;6.290;2023-12-28T08:41:22;11.60;1.00
64396;DHT22;50717;53.360;6.290;2023-12-28T08:43:50;11.60;1.00
64396;DHT22;50717;53.360;6.290;2023-12-28T08:46:16;11.60;1.00
64396;DHT22;50717;53.360;6.290;2023-12-28T08:48:42;11.80;1.00
64396;DHT22;50717;53.360;6.290;2023-12-28T08:51:09;11.60;1.00
64396;DHT22;50717;53.360;6.290;2023-12-28T08:53:35;11.60;1.00
64396;DHT22;50717;53.360;6.290;2023-12-28T08:56:00;11.60;1.00
64396;DHT22;50717;53.360;6.290;2023-12-28T08:58:26;11.80;1.00
64396;DHT22;50717;53.360;6.290;2023-12-28T09:00:52;11.80;1.00
64396;DHT22;50717;53.360;6.290;2023-12-28T09:03:17;11.70;1.00
64396;DHT22;50717;53.360;6.290;2023-12-28T09:05:43;11.60;1.00
64396;DHT22;50717;53.360;6.290;2023-12-28T09:08:09;11.60;1.00
64396;DHT22;50717;53.360;6.290;2023-12-28T09:10:34;11.70;1.00
64396;DHT22;50717;53.360;6.290;2023-12-28T09:13:00;11.40;1.00
64396;DHT22;50717;53.360;6.290;2023-12-28T09:15:26;11.70;1.00
64396;DHT22;50717;53.360;6.290;2023-12-28T09:17:51;11.40;1.00
64396;DHT22;50717;53.360;6.290;2023-12-28T09:20:18;11.60;1.00
64396;DHT22;50717;53.360;6.290;2023-12-28T09:22:44;11.70;1.00
64396;DHT22;50717;53.360;6.290;2023-12-28T09:25:11;11.60;1.00
64396;DHT22;50717;53.360;6.290;2023-12-28T09:27:37;11.60;1.00
64396;DHT22;50717;53.360;6.290;2023-12-28T09:30:03;11.50;1.00
64396;DHT22;50717;53.360;6.290;2023-12-28T09:32:29;11.60;1.00
64396;DHT22;50717;53.360;6.290;2023-12-28T09:34:54;11.30;1.00
64396;DHT22;50717;53.360;6.290;2023-12-28T09:37:20;11.80;1.00
64396;DHT22;50717;53.360;6.290;2023-12-28T09:39:46;11.60;1.00
64396;DHT22;50717;53.360;6.290;2023-12-28T09:42:20;11.80;1.00
64396;DHT22;50717;53.360;6.290;2023-12-28T09:44:50;11.40;1.00
64396;DHT22;50717;53.360;6.290;2023-12-28T09:47:17;12.00;1.00
64396;DHT22;50717;53.360;6.290;2023-12-28T09:49:43;11.60;1.00
64396;DHT22;50717;53.360;6.290;2023-12-28T09:52:09;11.60;1.00
64396;DHT22;50717;53.360;6.290;2023-12-28T09:54:35;11.80;1.00
64396;DHT22;50717;53.360;6.290;2023-12-28T09:57:01;11.70;1.00
64396;DHT22;50717;53.360;6.290;2023-12-28T09:59:28;11.60;1.00
64396;DHT22;50717;53.360;6.290;2023-12-28T10:01:55;11.70;1.00
64396;DHT22;50717;53.360;6.290;2023-12-28T10:04:21;11.80;1.00
64396;DHT22;50717;53.360;6.290;2023-12-28T10:06:47;11.50;1.00
64396;DHT22;50717;53.360;6.290;2023-12-28T10:09:13;11.70;1.00
64396;DHT22;50717;53.360;6.290;2023-12-28T10:11:39;11.80;1.00
64396;DHT22;50717;53.360;6.290;2023-12-28T10:14:05;11.50;1.00
64396;DHT22;50717;53.360;6.290;2023-12-28T10:16:32;11.60;1.00
64396;DHT22;50717;53.360;6.290;2023-12-28T10:18:58;11.70;1.00
64396;DHT22;50717;53.360;6.290;2023-12-28T10:21:24;12.10;1.00
64396;DHT22;50717;53.360;6.290;2023-12-28T10:23:49;12.10;1.00
64396;DHT22;50717;53.360;6.290;2023-12-28T10:26:18;11.90;1.00
64396;DHT22;50717;53.360;6.290;2023-12-28T10:28:44;12.10;1.00
64396;DHT22;50717;53.360;6.290;2023-12-28T10:31:10;11.80;1.00
64396;DHT22;50717;53.360;6.290;2023-12-28T10:33:36;11.90;1.00
64396;DHT22;50717;53.360;6.290;2023-12-28T10:36:06;12.00;1.00
64396;DHT22;50717;53.360;6.290;2023-12-28T10:38:37;11.90;1.00
64396;DHT22;50717;53.360;6.290;2023-12-28T10:41:06;11.80;1.00
64396;DHT22;50717;53.360;6.290;2023-12-28T10:46:06;11.80;1.00
64396;DHT22;50717;53.360;6.290;2023-12-28T10:48:36;11.90;1.00
64396;DHT22;50717;53.360;6.290;2023-12-28T10:51:05;11.70;1.00
64396;DHT22;50717;53.360;6.290;2023-12-28T10:53:39;12.00;1.00
64396;DHT22;50717;53.360;6.290;2023-12-28T10:56:28;11.90;1.00
64396;DHT22;50717;53.360;6.290;2023-12-28T10:59:20;11.60;1.00
64396;DHT22;50717;53.360;6.290;2023-12-28T11:01:51;11.80;1.00
64396;DHT22;50717;53.360;6.290;2023-12-28T11:04:45;11.30;1.00
64396;DHT22;50717;53.360;6.290;2023-12-28T11:07:10;11.60;1.00
64396;DHT22;50717;53.360;6.290;2023-12-28T11:09:41;11.50;1.00
64396;DHT22;50717;53.360;6.290;2023-12-28T11:12:08;11.70;1.00
64396;DHT22;50717;53.360;6.290;2023-12-28T11:14:38;11.50;1.00
64396;DHT22;50717;53.360;6.290;2023-12-28T11:17:04;11.50;1.00
64396;DHT22;50717;53.360;6.290;2023-12-28T11:19:31;11.60;1.00
64396;DHT22;50717;53.360;6.290;2023-12-28T11:21:58;11.90;1.00
64396;DHT22;50717;53.360;6.290;2023-12-28T11:24:27;11.40;1.00
64396;DHT22;50717;53.360;6.290;2023-12-28T11:26:54;11.30;1.40
64396;DHT22;50717;53.360;6.290;2023-12-28T11:29:20;11.90;1.00
64396;DHT22;50717;53.360;6.290;2023-12-28T11:32:08;11.50;1.30
64396;DHT22;50717;53.360;6.290;2023-12-28T11:34:35;11.40;1.00
64396;DHT22;50717;53.360;6.290;2023-12-28T11:37:09;11.40;1.00
64396;DHT22;50717;53.360;6.290;2023-12-28T11:39:37;11.60;1.00
64396;DHT22;50717;53.360;6.290;2023-12-28T11:42:06;12.00;1.00
64396;DHT22;50717;53.360;6.290;2023-12-28T11:44:37;11.80;1.00
64396;DHT22;50717;53.360;6.290;2023-12-28T11:47:24;12.10;1.00
64396;DHT22;50717;53.360;6.290;2023-12-28T11:49:50;11.90;1.00
64396;DHT22;50717;53.360;6.290;2023-12-28T11:52:32;11.40;1.00
64396;DHT22;50717;53.360;6.290;2023-12-28T11:54:59;11.80;1.00
64396;DHT22;50717;53.360;6.290;2023-12-28T11:57:27;12.10;1.00
64396;DHT22;50717;53.360;6.290;2023-12-28T12:02:22;11.40;1.00
64396;DHT22;50717;53.360;6.290;2023-12-28T12:04:48;11.60;1.00
64396;DHT22;50717;53.360;6.290;2023-12-28T12:07:13;11.60;1.00
64396;DHT22;50717;53.360;6.290;2023-12-28T12:09:39;11.70;1.00
64396;DHT22;50717;53.360;6.290;2023-12-28T12:12:06;11.60;1.00
64396;DHT22;50717;53.360;6.290;2023-12-28T12:14:32;11.60;1.00
64396;DHT22;50717;53.360;6.290;2023-12-28T12:17:00;11.80;1.00
64396;DHT22;50717;53.360;6.290;2023-12-28T12:19:26;11.80;1.00
64396;DHT22;50717;53.360;6.290;2023-12-28T12:21:52;11.80;1.00
64396;DHT22;50717;53.360;6.290;2023-12-28T12:24:18;12.00;1.00
64396;DHT22;50717;53.360;6.290;2023-12-28T12:26:45;11.90;1.00
64396;DHT22;50717;53.360;6.290;2023-12-28T12:29:11;11.90;1.00
64396;DHT22;50717;53.360;6.290;2023-12-28T12:31:37;11.90;1.00
64396;DHT22;50717;53.360;6.290;2023-12-28T12:34:15;11.80;1.00
64396;DHT22;50717;53.360;6.290;2023-12-28T12:36:41;11.60;1.00
64396;DHT22;50717;53.360;6.290;2023-12-28T12:39:07;11.60;1.00
64396;DHT22;50717;53.360;6.290;2023-12-28T12:41:34;11.90;1.00
64396;DHT22;50717;53.360;6.290;2023-12-28T12:44:00;12.00;1.00
64396;DHT22;50717;53.360;6.290;2023-12-28T12:46:26;11.70;1.00
64396;DHT22;50717;53.360;6.290;2023-12-28T12:48:59;12.10;1.00
64396;DHT22;50717;53.360;6.290;2023-12-28T12:51:25;11.90;1.00
64396;DHT22;50717;53.360;6.290;2023-12-28T12:54:02;11.80;1.00
64396;DHT22;50717;53.360;6.290;2023-12-28T12:56:29;11.70;1.00
64396;DHT22;50717;53.360;6.290;2023-12-28T12:58:56;11.80;1.00
64396;DHT22;50717;53.360;6.290;2023-12-28T13:01:25;11.70;1.00
64396;DHT22;50717;53.360;6.290;2023-12-28T13:03:51;12.00;1.00
64396;DHT22;50717;53.360;6.290;2023-12-28T13:06:17;11.50;1.00
64396;DHT22;50717;53.360;6.290;2023-12-28T13:08:43;11.90;1.00
64396;DHT22;50717;53.360;6.290;2023-12-28T13:11:08;11.80;1.00
64396;DHT22;50717;53.360;6.290;2023-12-28T13:13:35;11.90;1.00
64396;DHT22;50717;53.360;6.290;2023-12-28T13:16:01;12.00;1.00
64396;DHT22;50717;53.360;6.290;2023-12-28T13:18:27;11.60;1.00
64396;DHT22;50717;53.360;6.290;2023-12-28T13:20:53;11.70;1.00
64396;DHT22;50717;53.360;6.290;2023-12-28T13:23:18;11.60;1.00
64396;DHT22;50717;53.360;6.290;2023-12-28T13:25:44;11.70;1.00
64396;DHT22;50717;53.360;6.290;2023-12-28T13:28:10;11.70;1.00
64396;DHT22;50717;53.360;6.290;2023-12-28T13:30:35;11.40;1.00
64396;DHT22;50717;53.360;6.290;2023-12-28T13:33:06;11.50;1.00
64396;DHT22;50717;53.360;6.290;2023-12-28T13:35:32;11.60;1.00
64396;DHT22;50717;53.360;6.290;2023-12-28T13:38:00;11.60;1.00
64396;DHT22;50717;53.360;6.290;2023-12-28T13:40:28;11.50;1.00
64396;DHT22;50717;53.360;6.290;2023-12-28T13:42:56;11.60;1.00
64396;DHT22;50717;53.360;6.290;2023-12-28T13:45:22;11.60;1.00
64396;DHT22;50717;53.360;6.290;2023-12-28T13:47:47;11.70;1.00
64396;DHT22;50717;53.360;6.290;2023-12-28T13:50:13;11.50;1.00
64396;DHT22;50717;53.360;6.290;2023-12-28T13:52:39;11.60;1.00
64396;DHT22;50717;53.360;6.290;2023-12-28T13:55:05;11.70;1.00
64396;DHT22;50717;53.360;6.290;2023-12-28T13:57:30;11.70;1.00
64396;DHT22;50717;53.360;6.290;2023-12-28T13:59:56;11.20;1.00
64396;DHT22;50717;53.360;6.290;2023-12-28T14:02:26;11.30;1.00
64396;DHT22;50717;53.360;6.290;2023-12-28T14:04:52;11.20;1.00
64396;DHT22;50717;53.360;6.290;2023-12-28T14:07:19;11.30;1.00
64396;DHT22;50717;53.360;6.290;2023-12-28T14:09:45;11.10;1.00
64396;DHT22;50717;53.360;6.290;2023-12-28T14:12:10;11.30;1.00
64396;DHT22;50717;53.360;6.290;2023-12-28T14:14:36;11.50;1.00
64396;DHT22;50717;53.360;6.290;2023-12-28T14:17:02;11.30;1.00
64396;DHT22;50717;53.360;6.290;2023-12-28T14:19:30;11.40;1.00
64396;DHT22;50717;53.360;6.290;2023-12-28T14:21:56;11.20;1.00
64396;DHT22;50717;53.360;6.290;2023-12-28T14:24:22;10.90;1.00
64396;DHT22;50717;53.360;6.290;2023-12-28T14:26:48;11.00;1.00
64396;DHT22;50717;53.360;6.290;2023-12-28T14:29:14;11.00;1.00
64396;DHT22;50717;53.360;6.290;2023-12-28T14:31:41;11.20;1.00
64396;DHT22;50717;53.360;6.290;2023-12-28T14:34:07;11.30;1.00
64396;DHT22;50717;53.360;6.290;2023-12-28T14:36:37;11.20;1.00
64396;DHT22;50717;53.360;6.290;2023-12-28T14:39:05;11.40;1.00
64396;DHT22;50717;53.360;6.290;2023-12-28T14:41:33;11.40;1.00
64396;DHT22;50717;53.360;6.290;2023-12-28T14:43:58;10.80;4.90
64396;DHT22;50717;53.360;6.290;2023-12-28T14:46:25;11.00;11.00
64396;DHT22;50717;53.360;6.290;2023-12-28T14:48:51;10.80;16.10
64396;DHT22;50717;53.360;6.290;2023-12-28T14:51:17;11.10;19.90
64396;DHT22;50717;53.360;6.290;2023-12-28T14:53:42;10.80;25.30
64396;DHT22;50717;53.360;6.290;2023-12-28T14:56:08;10.80;29.50
64396;DHT22;50717;53.360;6.290;2023-12-28T14:58:34;10.40;24.80
64396;DHT22;50717;53.360;6.290;2023-12-28T15:01:00;10.40;39.90
64396;DHT22;50717;53.360;6.290;2023-12-28T15:03:25;10.70;45.30
64396;DHT22;50717;53.360;6.290;2023-12-28T15:05:51;10.40;48.10
64396;DHT22;50717;53.360;6.290;2023-12-28T15:08:17;10.50;47.90
64396;DHT22;50717;53.360;6.290;2023-12-28T15:10:44;10.60;60.00
64396;DHT22;50717;53.360;6.290;2023-12-28T15:13:10;10.40;61.70
64396;DHT22;50717;53.360;6.290;2023-12-28T15:15:36;10.20;64.20
64396;DHT22;50717;53.360;6.290;2023-12-28T15:18:02;10.30;68.40
64396;DHT22;50717;53.360;6.290;2023-12-28T15:20:28;10.10;52.90
64396;DHT22;50717;53.360;6.290;2023-12-28T15:22:55;10.40;64.90
64396;DHT22;50717;53.360;6.290;2023-12-28T15:25:21;10.40;66.00
64396;DHT22;50717;53.360;6.290;2023-12-28T15:27:47;10.20;67.70
64396;DHT22;50717;53.360;6.290;2023-12-28T15:30:13;10.60;67.40
64396;DHT22;50717;53.360;6.290;2023-12-28T15:32:42;10.30;66.10
64396;DHT22;50717;53.360;6.290;2023-12-28T15:35:13;10.40;51.40
64396;DHT22;50717;53.360;6.290;2023-12-28T15:37:39;10.50;56.40
64396;DHT22;50717;53.360;6.290;2023-12-28T15:40:06;10.60;50.60
64396;DHT22;50717;53.360;6.290;2023-12-28T15:42:31;10.30;44.70
64396;DHT22;50717;53.360;6.290;2023-12-28T15:44:57;10.60;37.90
64396;DHT22;50717;53.360;6.290;2023-12-28T15:47:23;10.60;28.70